Time;durP1;ratioP1;P1;durP2;ratioP2;P2;SDS_P1;SDS_P2;PMS_P1;PMS_P2;Temp;Humidity;BMP_temperature;BMP_pressure;BME280_temperature;BME280_humidity;BME280_pressure;Samples;Min_cycle;Max_cycle;Signal;HPM_P1;HPM_P2
2020/12/20 00:00:38;;;;;;;5.83;3.57;;;10.30;99.90;;;;;;5079221;28;20541;-86
2020/12/20 00:03:05;;;;;;;6.70;3.90;;;10.20;99.90;;;;;;5077760;28;20440;-86
2020/12/20 00:05:35;;;;;;;6.90;4.87;;;10.10;99.90;;;;;;5077937;28;20478;-86
2020/12/20 00:08:01;;;;;;;4.30;3.43;;;10.00;99.90;;;;;;5076423;28;20542;-86
2020/12/20 00:10:28;;;;;;;8.20;3.77;;;9.90;99.90;;;;;;5077282;28;20526;-86
2020/12/20 00:12:55;;;;;;;5.87;4.00;;;9.80;99.90;;;;;;5078181;28;20467;-85
2020/12/20 00:15:22;;;;;;;7.77;4.27;;;9.80;99.90;;;;;;5076910;28;20896;-86
2020/12/20 00:17:50;;;;;;;7.30;4.37;;;9.70;99.90;;;;;;5077031;28;20451;-86
2020/12/20 00:20:19;;;;;;;7.40;4.50;;;9.70;99.90;;;;;;5076796;28;20526;-85
2020/12/20 00:22:46;;;;;;;5.70;4.00;;;9.70;99.90;;;;;;5075971;28;20538;-84
2020/12/20 00:25:13;;;;;;;4.40;3.57;;;9.70;99.90;;;;;;5075587;28;20500;-84
2020/12/20 00:27:40;;;;;;;6.33;4.30;;;9.70;99.90;;;;;;5076105;28;20447;-85
2020/12/20 00:30:07;;;;;;;6.70;3.60;;;9.70;99.90;;;;;;5075453;28;20499;-87
2020/12/20 00:32:34;;;;;;;6.77;3.97;;;9.70;99.90;;;;;;5075808;28;20473;-85
2020/12/20 00:35:01;;;;;;;6.20;4.03;;;9.80;99.90;;;;;;5076178;28;20457;-85
2020/12/20 00:37:27;;;;;;;6.17;3.77;;;9.90;99.90;;;;;;5075306;28;20447;-84
2020/12/20 00:39:54;;;;;;;5.33;4.03;;;10.00;99.90;;;;;;5074982;28;20934;-85
2020/12/20 00:42:21;;;;;;;7.33;4.63;;;10.00;99.90;;;;;;5075079;28;20447;-85
2020/12/20 00:44:48;;;;;;;4.70;2.97;;;10.10;99.90;;;;;;5075124;28;20451;-84
2020/12/20 00:47:14;;;;;;;5.80;3.60;;;10.20;99.90;;;;;;5075125;28;20447;-85
2020/12/20 00:49:41;;;;;;;5.30;3.30;;;10.20;99.90;;;;;;5074436;28;20486;-85
2020/12/20 00:52:08;;;;;;;4.93;3.50;;;10.30;99.90;;;;;;5074867;28;20779;-85
2020/12/20 00:54:34;;;;;;;4.70;2.97;;;10.40;99.90;;;;;;5074517;28;20486;-84
2020/12/20 00:57:01;;;;;;;5.97;4.23;;;10.40;99.90;;;;;;5074264;28;20520;-85
2020/12/20 00:59:27;;;;;;;5.53;3.20;;;10.40;99.90;;;;;;5074678;28;20550;-85
2020/12/20 01:01:56;;;;;;;4.97;3.30;;;10.50;99.90;;;;;;5074225;28;20486;-85
2020/12/20 01:04:22;;;;;;;4.60;3.03;;;10.40;99.90;;;;;;5074297;28;20484;-85
2020/12/20 01:06:48;;;;;;;4.50;2.70;;;10.50;99.90;;;;;;5074270;28;20443;-84
2020/12/20 01:09:16;;;;;;;4.70;2.90;;;10.40;99.90;;;;;;5074169;28;20483;-84
2020/12/20 01:11:43;;;;;;;5.70;3.07;;;10.40;99.90;;;;;;5074533;28;20478;-84
2020/12/20 01:14:09;;;;;;;4.97;3.10;;;10.40;99.90;;;;;;5074605;28;20483;-84
2020/12/20 01:16:35;;;;;;;3.63;2.73;;;10.40;99.90;;;;;;5074687;28;20480;-84
2020/12/20 01:19:03;;;;;;;4.83;3.50;;;10.40;99.90;;;;;;5074741;28;20457;-84
2020/12/20 01:21:29;;;;;;;5.77;4.10;;;10.40;99.90;;;;;;5074477;28;20497;-85
2020/12/20 01:23:55;;;;;;;4.20;3.23;;;10.40;99.90;;;;;;5074445;28;20473;-84
2020/12/20 01:26:22;;;;;;;4.80;3.43;;;10.50;99.90;;;;;;5074576;28;20882;-85
2020/12/20 01:28:49;;;;;;;5.17;3.37;;;10.50;99.90;;;;;;5074880;28;20502;-85
2020/12/20 01:31:36;;;;;;;6.07;3.50;;;10.50;99.90;;;;;;5075169;28;20439;-85
2020/12/20 01:41:14;;;;;;;7.43;3.27;;;10.60;99.90;;;;;;5073408;28;20430;-85
2020/12/20 01:47:19;;;;;;;5.93;2.87;;;10.70;99.90;;;;;;5074503;28;20426;-85
2020/12/20 01:54:02;;;;;;;4.40;2.90;;;10.70;99.90;;;;;;5074416;28;20522;-85
2020/12/20 03:25:46;;;;;;;4.93;3.13;;;10.30;99.90;;;;;;5033300;28;20551;-84
2020/12/20 03:28:12;;;;;;;4.10;3.50;;;10.20;99.90;;;;;;5036418;28;20535;-84
2020/12/20 03:30:39;;;;;;;4.60;3.40;;;10.20;99.90;;;;;;5036331;28;20550;-84
2020/12/20 03:33:05;;;;;;;5.90;4.10;;;10.10;99.90;;;;;;5036377;28;20543;-85
2020/12/20 03:35:31;;;;;;;5.40;3.90;;;10.10;99.90;;;;;;5036279;28;20507;-84
2020/12/20 03:37:58;;;;;;;5.20;3.67;;;10.20;99.90;;;;;;5036313;28;20454;-84
2020/12/20 03:40:27;;;;;;;5.80;4.20;;;10.20;99.90;;;;;;5036446;28;20809;-84
2020/12/20 03:42:55;;;;;;;6.27;3.40;;;10.20;99.90;;;;;;5035797;28;20535;-84
2020/12/20 03:45:21;;;;;;;6.30;4.40;;;10.20;99.90;;;;;;5036297;28;20540;-84
2020/12/20 03:47:48;;;;;;;5.73;4.00;;;10.10;99.90;;;;;;5035914;28;20453;-84
2020/12/20 03:50:15;;;;;;;7.03;3.33;;;10.10;99.90;;;;;;5035941;28;20492;-84
2020/12/20 03:52:41;;;;;;;6.53;3.97;;;10.20;99.90;;;;;;5035987;28;20477;-85
2020/12/20 03:55:08;;;;;;;7.23;4.10;;;10.10;99.90;;;;;;5035761;28;20471;-84
2020/12/20 03:57:34;;;;;;;10.60;4.57;;;10.10;99.90;;;;;;5035756;28;20448;-84
2020/12/20 04:00:01;;;;;;;5.93;3.50;;;10.10;99.90;;;;;;5036016;28;20488;-84
2020/12/20 04:02:27;;;;;;;11.30;4.00;;;10.20;99.90;;;;;;5035650;28;20921;-85
2020/12/20 04:04:54;;;;;;;6.40;3.90;;;10.20;99.90;;;;;;5036152;28;20453;-84
2020/12/20 04:07:20;;;;;;;5.47;4.00;;;10.10;99.90;;;;;;5035488;28;20464;-84
2020/12/20 04:09:47;;;;;;;7.33;4.60;;;10.10;99.90;;;;;;5035134;28;20495;-84
2020/12/20 04:12:14;;;;;;;5.57;3.20;;;10.10;99.90;;;;;;5034988;28;20921;-85
2020/12/20 04:14:41;;;;;;;8.40;4.33;;;10.10;99.90;;;;;;5035081;28;20457;-84
2020/12/20 04:17:08;;;;;;;5.97;4.13;;;10.00;99.90;;;;;;5035192;28;20518;-84
2020/12/20 04:19:35;;;;;;;5.30;3.93;;;9.90;99.90;;;;;;5034849;28;20453;-85
2020/12/20 04:22:01;;;;;;;6.30;3.93;;;9.80;99.90;;;;;;5034980;28;20480;-84
2020/12/20 04:24:30;;;;;;;7.33;3.73;;;9.80;99.90;;;;;;5042708;28;20487;-87
2020/12/20 04:26:57;;;;;;;4.97;3.90;;;9.70;99.90;;;;;;5054737;28;20848;-84
2020/12/20 04:29:23;;;;;;;6.03;3.50;;;9.70;99.90;;;;;;5054514;28;20962;-84
2020/12/20 04:31:49;;;;;;;7.23;4.30;;;9.60;99.90;;;;;;5055185;28;20788;-83
2020/12/20 04:34:17;;;;;;;5.87;3.67;;;9.50;99.90;;;;;;5054961;28;20437;-84
2020/12/20 04:40:12;;;;;;;6.50;4.40;;;9.50;99.90;;;;;;5054916;28;20863;-83
2020/12/20 04:46:08;;;;;;;5.23;3.87;;;9.40;99.90;;;;;;5054911;28;20407;-83
2020/12/20 04:52:07;;;;;;;7.07;4.40;;;9.40;99.90;;;;;;5054834;28;20438;-84
2020/12/20 04:58:43;;;;;;;6.40;4.27;;;9.40;99.90;;;;;;5055010;28;20403;-84
2020/12/20 05:04:54;;;;;;;6.67;4.07;;;9.40;99.90;;;;;;5055045;28;20484;-84
2020/12/20 05:07:22;;;;;;;5.90;4.43;;;9.50;99.90;;;;;;5054760;28;20448;-84
2020/12/20 05:09:49;;;;;;;6.20;5.17;;;9.40;99.90;;;;;;5055069;28;20479;-84
2020/12/20 05:12:24;;;;;;;7.90;4.00;;;9.40;99.90;;;;;;5054887;28;20460;-83
2020/12/20 05:14:50;;;;;;;11.20;4.83;;;9.50;99.90;;;;;;5052374;28;20808;-82
2020/12/20 05:17:17;;;;;;;7.00;4.63;;;9.60;99.90;;;;;;5054094;28;20793;-83
2020/12/20 05:19:44;;;;;;;7.00;4.80;;;9.60;99.90;;;;;;5054097;28;20456;-83
2020/12/20 05:22:17;;;;;;;5.93;4.90;;;9.70;99.90;;;;;;5054092;28;20781;-83
2020/12/20 05:24:45;;;;;;;5.17;4.10;;;9.60;99.90;;;;;;5054124;28;20487;-83
2020/12/20 05:27:23;;;;;;;8.50;5.33;;;9.70;99.90;;;;;;5054268;28;20529;-83
2020/12/20 05:29:50;;;;;;;7.30;4.27;;;9.60;99.90;;;;;;5053644;28;20475;-83
2020/12/20 05:32:28;;;;;;;8.10;4.50;;;9.70;99.90;;;;;;5054545;28;20906;-83
2020/12/20 05:35:01;;;;;;;5.57;4.30;;;9.70;99.90;;;;;;5053664;28;20924;-83
2020/12/20 05:37:32;;;;;;;6.27;4.30;;;9.70;99.90;;;;;;5053887;28;20455;-83
2020/12/20 05:40:00;;;;;;;8.50;5.17;;;9.70;99.90;;;;;;5053504;28;20470;-84
2020/12/20 05:42:27;;;;;;;8.23;5.13;;;9.80;99.90;;;;;;5052162;28;20953;-85
2020/12/20 05:45:05;;;;;;;5.07;4.17;;;9.80;99.90;;;;;;5052310;28;20454;-84
2020/12/20 05:47:35;;;;;;;6.83;4.97;;;9.80;99.90;;;;;;5033382;28;20456;-88
2020/12/20 05:50:01;;;;;;;7.70;4.60;;;9.70;99.90;;;;;;5039160;28;20484;-84
2020/12/20 05:52:28;;;;;;;11.67;5.00;;;9.70;99.90;;;;;;5037564;28;20531;-84
2020/12/20 05:54:54;;;;;;;11.70;5.30;;;9.70;99.90;;;;;;5037215;28;20452;-85
2020/12/20 05:57:24;;;;;;;6.90;4.93;;;9.70;99.90;;;;;;5053793;28;20543;-85
2020/12/20 05:59:51;;;;;;;10.83;4.83;;;9.80;99.90;;;;;;5056490;28;20456;-84
2020/12/20 06:02:18;;;;;;;6.00;4.57;;;9.80;99.90;;;;;;5057129;28;20934;-85
2020/12/20 06:04:46;;;;;;;6.00;4.80;;;9.80;99.90;;;;;;5056558;28;20452;-85
2020/12/20 06:07:13;;;;;;;7.17;4.43;;;9.80;99.90;;;;;;5057011;28;20466;-85
2020/12/20 06:09:52;;;;;;;7.07;4.70;;;9.80;99.90;;;;;;5056749;28;20583;-85
2020/12/20 06:12:22;;;;;;;5.80;4.23;;;9.80;99.90;;;;;;5057424;28;20435;-84
2020/12/20 06:14:49;;;;;;;6.07;4.60;;;9.80;99.90;;;;;;5056108;28;20447;-85
2020/12/20 06:17:18;;;;;;;5.77;4.30;;;9.80;99.90;;;;;;5056797;28;20517;-85
2020/12/20 06:19:57;;;;;;;6.80;4.70;;;9.80;99.90;;;;;;5056879;28;20778;-85
2020/12/20 06:22:26;;;;;;;8.07;4.80;;;9.70;99.90;;;;;;5057440;28;20502;-84
2020/12/20 06:24:54;;;;;;;8.20;4.30;;;9.60;99.90;;;;;;5056065;28;20497;-85
2020/12/20 06:27:22;;;;;;;6.47;4.63;;;9.60;99.90;;;;;;5056070;28;20543;-85
2020/12/20 06:29:51;;;;;;;6.83;5.00;;;9.60;99.90;;;;;;5055635;28;20479;-85
2020/12/20 06:32:29;;;;;;;6.63;4.90;;;9.60;99.90;;;;;;5056348;28;20485;-84
2020/12/20 06:34:58;;;;;;;7.83;5.20;;;9.60;99.90;;;;;;5036585;28;20994;-84
2020/12/20 06:37:25;;;;;;;7.60;5.03;;;9.60;99.90;;;;;;5036913;28;20449;-84
2020/12/20 06:39:52;;;;;;;7.07;5.50;;;9.70;99.90;;;;;;5036433;28;20551;-84
2020/12/20 06:42:39;;;;;;;5.80;4.70;;;9.70;99.90;;;;;;5053907;28;20452;-84
2020/12/20 06:45:17;;;;;;;6.60;5.00;;;9.70;99.90;;;;;;5056964;28;20519;-84
2020/12/20 06:47:45;;;;;;;7.43;5.47;;;9.80;99.90;;;;;;5055259;28;20534;-84
2020/12/20 06:50:11;;;;;;;6.80;4.87;;;9.80;99.90;;;;;;5056506;28;20486;-85
2020/12/20 06:52:48;;;;;;;5.77;4.67;;;9.80;99.90;;;;;;5055880;28;20456;-86
2020/12/20 06:55:16;;;;;;;7.03;4.70;;;9.80;99.90;;;;;;5066226;28;20908;-85
2020/12/20 06:58:09;;;;;;;7.50;4.83;;;9.80;99.90;;;;;;5054697;28;20543;-85
2020/12/20 07:00:41;;;;;;;7.87;5.33;;;9.90;99.90;;;;;;5052346;28;20968;-86
2020/12/20 07:03:08;;;;;;;8.80;5.33;;;9.90;99.90;;;;;;5056533;28;20788;-84
2020/12/20 07:05:39;;;;;;;6.20;5.10;;;9.90;99.90;;;;;;5055409;28;20483;-89
2020/12/20 07:08:10;;;;;;;9.27;5.07;;;9.90;99.90;;;;;;5053271;28;20440;-86
2020/12/20 07:10:46;;;;;;;8.03;5.83;;;9.90;99.90;;;;;;5064312;28;20494;-89
2020/12/20 07:13:14;;;;;;;9.53;6.47;;;9.80;99.90;;;;;;5057062;28;20949;-86
2020/12/20 07:15:45;;;;;;;6.70;5.20;;;9.80;99.90;;;;;;5052377;28;20448;-87
2020/12/20 07:18:53;;;;;;;8.00;5.73;;;9.80;99.90;;;;;;5051762;28;20467;-85
2020/12/20 07:21:57;;;;;;;6.63;5.13;;;9.70;99.90;;;;;;5049770;28;20448;-85
2020/12/20 07:24:25;;;;;;;7.87;4.90;;;9.70;99.90;;;;;;5053896;28;21040;-86
2020/12/20 07:26:56;;;;;;;7.63;5.50;;;9.70;99.90;;;;;;5056224;28;20509;-84
2020/12/20 07:29:23;;;;;;;8.90;5.70;;;9.60;99.90;;;;;;5056348;28;21925;-88
2020/12/20 07:31:51;;;;;;;6.33;5.73;;;9.50;99.90;;;;;;5052311;28;20527;-85
2020/12/20 07:34:18;;;;;;;6.30;5.20;;;9.50;99.90;;;;;;5054064;28;20501;-88
2020/12/20 07:36:45;;;;;;;8.73;4.93;;;9.40;99.90;;;;;;5054866;28;20461;-86
2020/12/20 07:39:11;;;;;;;6.20;5.27;;;9.40;99.90;;;;;;5055097;28;20459;-85
2020/12/20 07:41:38;;;;;;;8.53;5.87;;;9.30;99.90;;;;;;5055163;28;20509;-89
2020/12/20 07:44:06;;;;;;;8.23;5.70;;;9.30;99.90;;;;;;5055367;28;20444;-85
2020/12/20 07:46:34;;;;;;;9.60;5.87;;;9.20;99.90;;;;;;5054226;28;20863;-86
2020/12/20 07:49:05;;;;;;;6.83;5.77;;;9.20;99.90;;;;;;5055638;28;20508;-86
2020/12/20 07:51:35;;;;;;;7.40;6.10;;;9.10;99.90;;;;;;5056557;28;20451;-85
2020/12/20 07:54:06;;;;;;;8.90;6.20;;;9.10;99.90;;;;;;5057421;28;20583;-85
2020/12/20 07:56:35;;;;;;;8.40;6.80;;;9.00;99.90;;;;;;5055365;28;20467;-86
2020/12/20 07:59:06;;;;;;;8.03;6.33;;;9.00;99.90;;;;;;5058900;28;20455;-86
2020/12/20 08:01:35;;;;;;;9.43;6.47;;;9.00;99.90;;;;;;5055823;28;20460;-84
2020/12/20 08:04:05;;;;;;;8.07;6.33;;;9.00;99.90;;;;;;5055081;28;20586;-86
2020/12/20 08:06:32;;;;;;;9.77;6.57;;;9.00;99.90;;;;;;5050450;28;20440;-84
2020/12/20 08:09:08;;;;;;;12.07;6.30;;;9.10;99.90;;;;;;5051245;28;20470;-86
2020/12/20 08:11:34;;;;;;;7.90;6.60;;;9.10;99.90;;;;;;5049276;28;20448;-85
2020/12/20 08:14:02;;;;;;;8.40;6.13;;;9.10;99.90;;;;;;5052635;28;20908;-87
2020/12/20 08:16:30;;;;;;;8.67;6.23;;;9.10;99.90;;;;;;5050799;28;20550;-87
2020/12/20 08:19:00;;;;;;;11.83;7.40;;;9.20;99.90;;;;;;5063583;28;20513;-86
2020/12/20 08:21:51;;;;;;;6.60;5.90;;;9.30;99.90;;;;;;5052075;28;20443;-86
2020/12/20 08:24:19;;;;;;;6.67;5.13;;;9.30;99.90;;;;;;5053478;28;20976;-86
2020/12/20 08:26:45;;;;;;;8.50;6.60;;;9.40;99.90;;;;;;5053862;28;20512;-86
2020/12/20 08:29:13;;;;;;;10.00;6.70;;;9.40;99.90;;;;;;5052748;28;20536;-87
2020/12/20 08:31:40;;;;;;;14.27;6.70;;;9.40;99.90;;;;;;5052685;28;20444;-90
2020/12/20 08:34:16;;;;;;;10.93;6.33;;;9.40;99.90;;;;;;5052912;28;20452;-86
2020/12/20 08:36:43;;;;;;;8.53;6.27;;;9.40;99.90;;;;;;5038213;28;20949;-90
2020/12/20 08:39:10;;;;;;;12.27;7.30;;;9.50;99.90;;;;;;5053260;28;20515;-86
2020/12/20 08:41:36;;;;;;;11.80;7.10;;;9.60;99.90;;;;;;5054067;28;20452;-85
2020/12/20 08:44:07;;;;;;;10.20;7.70;;;9.60;99.90;;;;;;5052245;28;20448;-86
2020/12/20 08:46:36;;;;;;;8.87;6.30;;;9.70;99.90;;;;;;5052616;28;20454;-86
2020/12/20 08:49:14;;;;;;;7.20;5.53;;;9.80;99.90;;;;;;5051920;28;20467;-87
2020/12/20 08:51:44;;;;;;;7.80;5.87;;;9.90;99.90;;;;;;5053677;28;20498;-91
2020/12/20 08:54:11;;;;;;;7.93;6.43;;;9.90;99.90;;;;;;5052679;28;20454;-88
2020/12/20 08:56:58;;;;;;;8.20;6.00;;;9.90;99.90;;;;;;5053517;28;20785;-86
2020/12/20 08:59:32;;;;;;;8.97;6.23;;;9.90;99.90;;;;;;5059546;28;20531;-86
2020/12/20 09:02:00;;;;;;;8.77;6.53;;;10.00;99.90;;;;;;5050221;28;20435;-87
2020/12/20 09:04:28;;;;;;;6.67;4.90;;;10.10;99.90;;;;;;5052829;28;20963;-85
2020/12/20 09:06:59;;;;;;;9.10;5.37;;;10.20;99.90;;;;;;5051919;28;20451;-86
2020/12/20 09:09:26;;;;;;;6.17;5.03;;;10.20;99.90;;;;;;5053595;28;20484;-86
2020/12/20 09:11:52;;;;;;;8.00;4.97;;;10.20;99.90;;;;;;5051873;28;20459;-86
2020/12/20 09:14:19;;;;;;;7.00;4.83;;;10.30;99.90;;;;;;5053335;28;20542;-86
2020/12/20 09:16:45;;;;;;;6.43;4.97;;;10.20;99.90;;;;;;5052935;28;20459;-86
2020/12/20 09:19:12;;;;;;;7.50;4.90;;;10.30;99.90;;;;;;5052972;28;20836;-86
2020/12/20 09:21:39;;;;;;;6.03;4.20;;;10.30;99.90;;;;;;5053393;28;20482;-88
2020/12/20 09:24:06;;;;;;;5.60;4.50;;;10.40;99.90;;;;;;5055729;28;20485;-86
2020/12/20 09:26:32;;;;;;;6.90;5.27;;;10.50;99.90;;;;;;5057199;28;20466;-86
2020/12/20 09:29:05;;;;;;;7.27;5.20;;;10.70;99.90;;;;;;5055686;28;20997;-86
2020/12/20 09:31:32;;;;;;;8.87;5.17;;;10.80;99.90;;;;;;5057160;28;20590;-86
2020/12/20 09:34:01;;;;;;;7.50;4.63;;;10.90;99.90;;;;;;5056814;28;20631;-87
2020/12/20 09:36:27;;;;;;;6.30;4.23;;;11.00;99.90;;;;;;5049920;28;20494;-87
2020/12/20 09:38:56;;;;;;;8.47;5.20;;;11.10;99.90;;;;;;5050541;28;20466;-86
2020/12/20 09:41:24;;;;;;;7.70;4.43;;;10.90;99.90;;;;;;5051516;28;20486;-87
2020/12/20 09:43:52;;;;;;;5.57;4.47;;;11.00;99.90;;;;;;5051329;28;20459;-88
2020/12/20 09:46:20;;;;;;;6.00;4.23;;;11.10;99.90;;;;;;5056443;28;20496;-86
2020/12/20 09:48:46;;;;;;;9.17;4.77;;;11.30;99.90;;;;;;5052690;28;20505;-91
2020/12/20 09:51:13;;;;;;;5.47;3.83;;;11.50;99.90;;;;;;5055926;28;20487;-86
2020/12/20 09:53:39;;;;;;;7.20;4.10;;;11.60;99.90;;;;;;5056107;28;20452;-86
2020/12/20 09:56:06;;;;;;;8.50;4.80;;;11.70;99.90;;;;;;5054840;28;20576;-86
2020/12/20 09:58:33;;;;;;;5.67;3.97;;;11.90;99.90;;;;;;5055674;28;20490;-86
2020/12/20 10:00:59;;;;;;;6.57;3.97;;;12.00;99.90;;;;;;5055817;28;20527;-87
2020/12/20 10:03:27;;;;;;;9.20;4.70;;;12.10;99.90;;;;;;5056737;28;20450;-86
2020/12/20 10:05:56;;;;;;;8.47;4.00;;;12.10;99.90;;;;;;5055438;28;20452;-87
2020/12/20 10:08:23;;;;;;;7.73;4.60;;;12.30;99.90;;;;;;5055620;28;20516;-86
2020/12/20 10:10:50;;;;;;;5.47;3.43;;;12.30;99.90;;;;;;5056885;28;20567;-86
2020/12/20 10:13:18;;;;;;;6.47;3.40;;;12.30;99.90;;;;;;5056266;28;20939;-85
2020/12/20 10:15:44;;;;;;;4.97;3.40;;;12.60;99.90;;;;;;5055853;28;20468;-86
2020/12/20 10:18:10;;;;;;;10.33;4.40;;;12.50;99.90;;;;;;5054786;28;20475;-87
2020/12/20 10:20:37;;;;;;;7.13;4.00;;;12.50;99.90;;;;;;5055414;28;20542;-86
2020/12/20 10:23:04;;;;;;;5.27;3.50;;;12.40;99.90;;;;;;5055996;28;20454;-85
2020/12/20 10:25:32;;;;;;;4.10;3.00;;;12.50;99.90;;;;;;5057141;28;20500;-86
2020/12/20 10:27:58;;;;;;;9.57;3.93;;;12.60;99.90;;;;;;5058123;28;20447;-86
2020/12/20 10:30:26;;;;;;;8.40;3.10;;;12.70;99.90;;;;;;5058412;28;20579;-87
2020/12/20 10:32:54;;;;;;;6.03;3.27;;;12.90;99.90;;;;;;5058474;28;20550;-87
2020/12/20 10:35:23;;;;;;;4.50;3.00;;;13.00;99.90;;;;;;5058761;28;20766;-89
2020/12/20 10:37:50;;;;;;;8.23;3.23;;;13.00;99.90;;;;;;5038266;28;20469;-86
2020/12/20 10:40:16;;;;;;;5.40;3.23;;;12.90;99.90;;;;;;5059587;28;20531;-86
2020/12/20 10:42:53;;;;;;;9.53;2.87;;;13.10;99.90;;;;;;5059157;28;20448;-86
2020/12/20 10:45:41;;;;;;;6.93;2.90;;;13.10;99.90;;;;;;5061923;28;20523;-86
2020/12/20 10:48:26;;;;;;;9.10;2.93;;;13.00;99.90;;;;;;5065353;28;20449;-88
2020/12/20 10:50:58;;;;;;;6.43;2.47;;;12.90;99.90;;;;;;5056468;28;20472;-87
2020/12/20 10:53:24;;;;;;;9.37;4.00;;;12.90;99.90;;;;;;5055246;28;20471;-86
2020/12/20 10:55:54;;;;;;;4.67;2.93;;;12.70;99.90;;;;;;5056377;28;20501;-87
2020/12/20 10:58:20;;;;;;;9.70;2.87;;;12.80;99.90;;;;;;5057899;28;20444;-86
2020/12/20 11:01:14;;;;;;;7.93;3.10;;;12.70;99.90;;;;;;5056725;28;20462;-92
2020/12/20 11:03:40;;;;;;;7.77;4.27;;;12.50;99.90;;;;;;5055740;28;20531;-87
2020/12/20 11:06:06;;;;;;;6.40;3.33;;;12.40;99.90;;;;;;5057823;28;20440;-87
2020/12/20 11:08:36;;;;;;;9.13;3.40;;;12.50;99.90;;;;;;5057204;28;20536;-87
2020/12/20 11:11:07;;;;;;;3.97;2.53;;;12.70;99.90;;;;;;5055817;28;20550;-86
2020/12/20 11:13:37;;;;;;;5.30;2.60;;;12.70;99.90;;;;;;5056840;28;20432;-86
2020/12/20 11:16:04;;;;;;;7.83;2.13;;;12.70;99.90;;;;;;5056151;28;20985;-86
2020/12/20 11:18:31;;;;;;;10.60;3.20;;;12.80;99.90;;;;;;5057333;28;20946;-86
2020/12/20 11:20:57;;;;;;;5.43;2.80;;;12.80;99.90;;;;;;5057434;28;20447;-87
2020/12/20 11:23:24;;;;;;;8.80;2.63;;;12.80;99.90;;;;;;5056677;28;20535;-86
2020/12/20 11:26:00;;;;;;;7.33;3.20;;;12.90;99.90;;;;;;5055932;28;20533;-88
2020/12/20 11:28:32;;;;;;;4.90;2.70;;;12.90;99.90;;;;;;5054122;28;20462;-87
2020/12/20 11:30:58;;;;;;;6.67;2.60;;;13.00;99.90;;;;;;5039123;28;20467;-86
2020/12/20 11:33:28;;;;;;;7.53;3.23;;;12.90;99.90;;;;;;5055419;28;20444;-86
2020/12/20 11:35:55;;;;;;;9.93;2.70;;;12.90;99.90;;;;;;5055078;28;20912;-86
2020/12/20 11:38:22;;;;;;;8.87;3.03;;;12.90;99.90;;;;;;5055427;28;20444;-85
2020/12/20 11:40:53;;;;;;;6.90;3.20;;;12.90;99.90;;;;;;5054396;28;20513;-86
2020/12/20 11:43:19;;;;;;;10.83;3.80;;;12.80;99.90;;;;;;5054343;28;20436;-86
2020/12/20 11:45:46;;;;;;;6.80;2.80;;;12.80;99.90;;;;;;5054380;28;20475;-85
2020/12/20 11:48:13;;;;;;;6.73;2.90;;;12.70;99.90;;;;;;5055037;28;20942;-85
2020/12/20 11:50:40;;;;;;;8.70;2.83;;;12.60;99.90;;;;;;5047227;28;20492;-86
2020/12/20 11:53:07;;;;;;;6.30;3.17;;;12.70;99.90;;;;;;5054061;28;20538;-86
2020/12/20 11:55:34;;;;;;;7.67;2.67;;;12.80;99.90;;;;;;5054458;28;20456;-85
2020/12/20 11:58:01;;;;;;;5.00;2.97;;;12.80;99.90;;;;;;5054006;28;20454;-85
2020/12/20 12:00:28;;;;;;;6.70;2.80;;;12.70;99.90;;;;;;5052812;28;20935;-86
2020/12/20 12:02:54;;;;;;;5.13;3.20;;;12.60;99.90;;;;;;5053351;28;20459;-86
2020/12/20 12:05:21;;;;;;;9.33;2.97;;;12.60;99.90;;;;;;5054256;28;20532;-86
2020/12/20 12:07:47;;;;;;;11.90;3.30;;;12.60;99.90;;;;;;5054236;28;20444;-85
2020/12/20 12:10:14;;;;;;;6.20;2.87;;;12.70;99.90;;;;;;5054342;28;20478;-85
2020/12/20 12:12:46;;;;;;;7.10;2.47;;;12.80;99.90;;;;;;5050489;28;20513;-85
2020/12/20 12:15:17;;;;;;;7.20;2.67;;;12.70;99.90;;;;;;5054255;28;20440;-85
2020/12/20 12:17:44;;;;;;;10.87;3.77;;;12.80;99.90;;;;;;5054028;28;20448;-86
2020/12/20 12:20:17;;;;;;;5.93;2.73;;;12.70;99.90;;;;;;5051495;28;20719;-87
2020/12/20 12:22:43;;;;;;;6.17;3.07;;;12.70;99.90;;;;;;5048795;28;20532;-87
2020/12/20 12:25:10;;;;;;;9.30;3.37;;;12.60;99.90;;;;;;5052794;28;20480;-86
2020/12/20 12:27:46;;;;;;;6.10;2.60;;;12.60;99.90;;;;;;5053766;28;20516;-86
2020/12/20 12:30:13;;;;;;;6.87;3.37;;;12.60;99.90;;;;;;5049130;28;20571;-86
2020/12/20 12:32:40;;;;;;;8.70;3.50;;;12.60;99.90;;;;;;5053542;28;20494;-85
2020/12/20 12:35:08;;;;;;;8.80;3.73;;;12.50;99.90;;;;;;5053151;28;20548;-87
2020/12/20 12:37:36;;;;;;;11.43;3.57;;;12.50;99.90;;;;;;5054806;28;20797;-85
2020/12/20 12:40:05;;;;;;;7.00;2.93;;;12.30;99.90;;;;;;5037653;28;20539;-85
2020/12/20 12:42:32;;;;;;;9.90;3.27;;;12.40;99.90;;;;;;5045065;28;20539;-85
2020/12/20 12:44:59;;;;;;;6.40;3.30;;;12.30;99.90;;;;;;5056434;28;20550;-86
2020/12/20 12:47:25;;;;;;;5.40;2.63;;;12.30;99.90;;;;;;5055115;28;20448;-83
2020/12/20 12:49:52;;;;;;;7.27;2.70;;;12.20;99.90;;;;;;5052042;28;20586;-86
2020/12/20 12:52:18;;;;;;;7.43;2.87;;;12.10;99.90;;;;;;5050034;28;20456;-83
2020/12/20 12:54:46;;;;;;;8.13;3.77;;;12.10;99.90;;;;;;5053732;28;20495;-84
2020/12/20 12:57:12;;;;;;;5.20;2.90;;;12.20;99.90;;;;;;5053020;28;20936;-84
2020/12/20 12:59:38;;;;;;;8.37;2.63;;;12.30;99.90;;;;;;5052742;28;20532;-86
2020/12/20 13:02:10;;;;;;;14.30;3.80;;;12.30;99.90;;;;;;5055968;28;20447;-86
2020/12/20 13:04:36;;;;;;;8.97;3.87;;;12.30;99.90;;;;;;5063587;28;20450;-88
2020/12/20 13:07:06;;;;;;;6.10;3.40;;;12.10;99.90;;;;;;5054329;28;20608;-87
2020/12/20 13:09:36;;;;;;;9.47;3.47;;;12.20;99.90;;;;;;5051411;28;20540;-85
2020/12/20 13:12:05;;;;;;;4.13;2.53;;;12.10;99.90;;;;;;5056305;28;20472;-86
2020/12/20 13:14:31;;;;;;;7.73;3.00;;;12.30;99.90;;;;;;5059215;28;20499;-86
2020/12/20 13:16:58;;;;;;;8.30;3.20;;;12.40;99.90;;;;;;5061529;28;20444;-84
2020/12/20 13:19:29;;;;;;;6.63;2.80;;;12.40;99.90;;;;;;5059315;28;20527;-86
2020/12/20 13:21:59;;;;;;;5.40;2.40;;;12.30;99.90;;;;;;5056425;28;20494;-87
2020/12/20 13:24:29;;;;;;;8.77;3.30;;;12.30;99.90;;;;;;5056496;28;20579;-85
2020/12/20 13:26:58;;;;;;;7.90;3.20;;;12.30;99.90;;;;;;5058324;28;20536;-87
2020/12/20 13:32:09;;;;;;;5.87;2.60;;;12.30;99.90;;;;;;5057375;28;20950;-87
2020/12/20 13:34:39;;;;;;;12.97;2.87;;;12.40;99.90;;;;;;5058140;28;20479;-87
2020/12/20 13:37:05;;;;;;;11.40;2.77;;;12.30;99.90;;;;;;5057189;28;20461;-89
2020/12/20 13:39:48;;;;;;;9.10;2.87;;;12.30;99.90;;;;;;5056457;28;20541;-88
2020/12/20 13:42:16;;;;;;;7.23;2.43;;;12.30;99.90;;;;;;5055443;28;20467;-88
2020/12/20 13:44:46;;;;;;;8.40;3.33;;;12.40;99.90;;;;;;5055007;28;20456;-88
2020/12/20 13:47:15;;;;;;;11.23;3.37;;;12.50;99.90;;;;;;5055594;28;20454;-88
2020/12/20 13:49:42;;;;;;;9.70;3.23;;;12.60;99.90;;;;;;5059794;28;20474;-88
2020/12/20 13:52:08;;;;;;;7.53;2.70;;;12.60;99.90;;;;;;5055346;28;20543;-89
2020/12/20 13:54:35;;;;;;;15.60;3.30;;;12.60;99.90;;;;;;5055664;28;20502;-88
2020/12/20 13:57:01;;;;;;;5.40;3.87;;;12.60;99.90;;;;;;5057478;28;20456;-89
2020/12/20 13:59:28;;;;;;;7.83;2.80;;;12.60;99.90;;;;;;5068942;28;20448;-88
2020/12/20 14:01:54;;;;;;;5.10;2.17;;;12.60;99.90;;;;;;5071637;28;20900;-90
2020/12/20 14:04:21;;;;;;;5.83;3.13;;;12.70;99.90;;;;;;5059198;28;21244;-87
2020/12/20 14:06:48;;;;;;;5.30;2.67;;;12.80;99.90;;;;;;5065971;28;20852;-88
2020/12/20 14:09:15;;;;;;;8.60;2.83;;;12.70;99.90;;;;;;5066036;28;20527;-88
2020/12/20 14:11:42;;;;;;;6.80;2.80;;;12.80;99.90;;;;;;5072633;28;20444;-87
2020/12/20 14:14:08;;;;;;;5.30;2.27;;;12.80;99.90;;;;;;5071544;28;20491;-89
2020/12/20 14:16:35;;;;;;;7.03;3.30;;;12.80;99.90;;;;;;5070841;28;20461;-88
2020/12/20 14:19:01;;;;;;;6.43;2.60;;;12.80;99.90;;;;;;5057958;28;20464;-88
2020/12/20 14:21:28;;;;;;;6.33;2.13;;;12.80;99.90;;;;;;5059990;28;20460;-87
2020/12/20 14:23:58;;;;;;;8.20;2.97;;;12.70;99.90;;;;;;5062076;28;20530;-94
2020/12/20 14:26:24;;;;;;;5.80;2.90;;;12.70;99.90;;;;;;5078029;28;20509;-87
2020/12/20 14:28:51;;;;;;;7.50;2.70;;;12.70;99.90;;;;;;5083957;28;21102;-86
2020/12/20 14:31:17;;;;;;;7.30;2.57;;;12.60;99.90;;;;;;5085566;28;20486;-87
2020/12/20 14:33:45;;;;;;;7.83;2.70;;;12.60;99.90;;;;;;5086838;28;20548;-88
2020/12/20 14:36:12;;;;;;;6.07;2.70;;;12.50;99.90;;;;;;5072669;28;20927;-87
2020/12/20 14:38:39;;;;;;;8.60;3.17;;;12.60;99.90;;;;;;5057303;28;20460;-88
2020/12/20 14:41:08;;;;;;;7.53;2.40;;;12.60;99.90;;;;;;5072016;28;20450;-87
2020/12/20 14:43:35;;;;;;;5.10;2.17;;;12.60;99.90;;;;;;5074135;28;20439;-88
2020/12/20 14:46:01;;;;;;;6.30;2.50;;;12.60;99.90;;;;;;5067166;28;20487;-88
2020/12/20 14:48:27;;;;;;;10.03;2.90;;;12.50;99.90;;;;;;5077227;28;20546;-88
2020/12/20 14:50:54;;;;;;;6.00;3.23;;;12.40;99.90;;;;;;5057462;28;20574;-88
2020/12/20 14:53:20;;;;;;;6.00;3.23;;;12.20;99.90;;;;;;5056134;28;20456;-89
2020/12/20 14:55:47;;;;;;;8.83;3.10;;;12.00;99.90;;;;;;5056474;28;21030;-88
2020/12/20 14:58:14;;;;;;;6.00;2.87;;;11.80;99.90;;;;;;5054821;28;20452;-87
2020/12/20 15:00:40;;;;;;;5.93;2.60;;;11.60;99.90;;;;;;5055764;28;20459;-88
2020/12/20 15:03:07;;;;;;;8.97;2.83;;;11.50;99.90;;;;;;5055133;28;21084;-90